Verdel, Nebraska
Current Conditions -  °F | °C
As of 6:15 PM on Saturday 20 Dec 2014 (Local Time) from KYKN Reporting Station
Overcast Overcast  
Wind Chill: 23°   Ceiling: 600
Heat Index: 32°   Visibility: 5mi
Dew Point: 28°   Wind: 13mph
Humidity: 87%   Direction: 140°SE
Pressure: 30.01"   Gusts: NA
Location:  42.7565°N, 97.8594°W
Report Text: KYKN 210015Z AUTO 14011KT 5SM OVC006 00/M02 A3001 RMK AO1
Loading
Personal Weather Stations






























Interactive Weather Map New forecast layout! Learn more

10-Day Weather Forecast

Advertisements
Track Severe Weather on mobile